Time;durP1;ratioP1;P1;durP2;ratioP2;P2;SDS_P1;SDS_P2;PMS_P1;PMS_P2;Temp;Humidity;BMP_temperature;BMP_pressure;BME280_temperature;BME280_humidity;BME280_pressure;Samples;Min_cycle;Max_cycle;Signal;HPM_P1;HPM_P2
2024/03/13 00:02:13;;;;;;;14.70;6.40;;;;;;;;;;5083554;28;20073;-64
2024/03/13 00:04:43;;;;;;;18.15;6.97;;;;;;;;;;5070546;28;20042;-64
2024/03/13 00:07:13;;;;;;;13.85;5.88;;;;;;;;;;5061542;28;20052;-64
2024/03/13 00:09:45;;;;;;;14.48;6.28;;;;;;;;;;5079237;27;20135;-64
2024/03/13 00:12:12;;;;;;;14.20;6.28;;;;;;;;;;5066540;27;20068;-64
2024/03/13 00:14:39;;;;;;;12.63;5.75;;;;;;;;;;5072629;28;20066;-65
2024/03/13 00:17:10;;;;;;;14.75;6.68;;;;;;;;;;5066474;28;20075;-64
2024/03/13 00:19:37;;;;;;;12.88;6.13;;;;;;;;;;5055567;28;20181;-64
2024/03/13 00:22:04;;;;;;;15.43;6.28;;;;;;;;;;5053771;28;20051;-66
2024/03/13 00:24:31;;;;;;;12.88;5.80;;;;;;;;;;5062172;28;20118;-66
2024/03/13 00:26:58;;;;;;;16.65;7.38;;;;;;;;;;5037659;28;20071;-66
2024/03/13 00:29:25;;;;;;;16.30;7.38;;;;;;;;;;5055833;28;20064;-65
2024/03/13 00:31:52;;;;;;;13.88;6.13;;;;;;;;;;5056401;28;20049;-67
2024/03/13 00:34:20;;;;;;;12.45;5.95;;;;;;;;;;5069103;28;20128;-65
2024/03/13 00:36:47;;;;;;;13.73;6.35;;;;;;;;;;5059521;28;20110;-65
2024/03/13 00:39:14;;;;;;;17.08;7.55;;;;;;;;;;5040817;28;20092;-65
2024/03/13 00:41:41;;;;;;;14.40;6.57;;;;;;;;;;5061539;28;20063;-66
2024/03/13 00:44:09;;;;;;;13.82;6.63;;;;;;;;;;5053892;28;20328;-65
2024/03/13 00:46:35;;;;;;;16.27;6.63;;;;;;;;;;5056076;28;20066;-65
2024/03/13 00:49:03;;;;;;;11.25;6.18;;;;;;;;;;5058372;28;20139;-65
2024/03/13 00:51:33;;;;;;;14.45;6.50;;;;;;;;;;5049864;28;20082;-65
2024/03/13 00:54:04;;;;;;;11.60;6.22;;;;;;;;;;5083631;27;20279;-65
2024/03/13 00:56:31;;;;;;;13.45;6.45;;;;;;;;;;5052255;28;20066;-65
2024/03/13 00:58:58;;;;;;;13.38;6.35;;;;;;;;;;5061881;28;20057;-65
2024/03/13 01:01:25;;;;;;;14.98;6.93;;;;;;;;;;5061908;28;20087;-65
2024/03/13 01:03:57;;;;;;;14.38;6.80;;;;;;;;;;5055226;28;20075;-66
2024/03/13 01:06:28;;;;;;;17.67;7.15;;;;;;;;;;5049186;28;20056;-66
2024/03/13 01:08:57;;;;;;;13.20;6.50;;;;;;;;;;5054903;28;20052;-66
2024/03/13 01:11:24;;;;;;;11.85;6.13;;;;;;;;;;5092765;28;20129;-64
2024/03/13 01:13:51;;;;;;;10.85;5.85;;;;;;;;;;5042872;28;20174;-64
2024/03/13 01:16:18;;;;;;;14.73;6.80;;;;;;;;;;5058711;28;20053;-63
2024/03/13 01:18:45;;;;;;;13.05;5.97;;;;;;;;;;5060195;28;20056;-64
2024/03/13 01:21:14;;;;;;;13.60;6.30;;;;;;;;;;5058417;28;20060;-64
2024/03/13 01:23:43;;;;;;;22.70;10.40;;;;;;;;;;5061196;28;20067;-64
2024/03/13 01:26:10;;;;;;;19.05;8.57;;;;;;;;;;5051171;28;20146;-64
2024/03/13 01:28:37;;;;;;;16.45;8.98;;;;;;;;;;5056667;28;20056;-63
2024/03/13 01:31:07;;;;;;;16.00;7.57;;;;;;;;;;5050967;28;20060;-67
2024/03/13 01:33:33;;;;;;;20.10;8.25;;;;;;;;;;5060185;28;20070;-66
2024/03/13 01:36:00;;;;;;;13.63;6.78;;;;;;;;;;5041878;28;20275;-64
2024/03/13 01:38:26;;;;;;;12.75;6.15;;;;;;;;;;5057229;28;20476;-64
2024/03/13 01:55:04;;;;;;;11.10;5.45;;;;;;;;;;5073306;28;20083;-66
2024/03/13 01:57:33;;;;;;;9.95;5.45;;;;;;;;;;5050113;28;20078;-66
2024/03/13 02:02:54;;;;;;;14.27;5.53;;;;;;;;;;5058409;28;19924;-66
2024/03/13 02:05:21;;;;;;;12.00;5.63;;;;;;;;;;5048386;28;20204;-66
2024/03/13 02:07:48;;;;;;;13.65;5.72;;;;;;;;;;5077621;28;20071;-64
2024/03/13 02:10:15;;;;;;;11.80;5.90;;;;;;;;;;5055354;28;20048;-65
2024/03/13 02:13:04;;;;;;;14.15;5.82;;;;;;;;;;5057822;28;20389;-64
2024/03/13 02:15:32;;;;;;;;;;;;;;;;;;5049884;28;20052;-64
2024/03/13 02:18:00;;;;;;;14.45;5.50;;;;;;;;;;5049895;28;19924;-64
2024/03/13 02:20:27;;;;;;;;;;;;;;;;;;5061276;28;21126;-64
2024/03/13 02:23:04;;;;;;;15.23;6.57;;;;;;;;;;5058771;28;19974;-63
2024/03/13 02:25:32;;;;;;;19.27;7.10;;;;;;;;;;5048049;28;20141;-64
2024/03/13 02:28:00;;;;;;;16.63;6.53;;;;;;;;;;5026494;28;20052;-64
2024/03/13 02:30:27;;;;;;;17.08;6.55;;;;;;;;;;5025555;28;20056;-63
2024/03/13 02:32:54;;;;;;;18.17;6.82;;;;;;;;;;5040634;28;20057;-63
2024/03/13 02:35:21;;;;;;;17.67;7.32;;;;;;;;;;5059273;28;20052;-64
2024/03/13 02:37:48;;;;;;;16.73;6.30;;;;;;;;;;5041866;28;20154;-63
2024/03/13 02:40:16;;;;;;;19.40;6.32;;;;;;;;;;5015612;28;20048;-64
2024/03/13 02:42:45;;;;;;;15.35;6.55;;;;;;;;;;5057600;28;20067;-63
2024/03/13 02:45:13;;;;;;;16.50;6.25;;;;;;;;;;5040027;28;20052;-64
2024/03/13 02:47:41;;;;;;;20.55;6.78;;;;;;;;;;5012936;28;20052;-64
2024/03/13 02:50:11;;;;;;;19.95;6.65;;;;;;;;;;5053401;28;20205;-63
2024/03/13 02:52:38;;;;;;;16.63;7.00;;;;;;;;;;5042844;28;20063;-65
2024/03/13 02:55:05;;;;;;;17.90;7.10;;;;;;;;;;5039748;28;20055;-63
2024/03/13 02:57:32;;;;;;;17.67;7.20;;;;;;;;;;5018033;28;20140;-63
2024/03/13 02:59:58;;;;;;;16.52;6.88;;;;;;;;;;5034895;28;20463;-63
2024/03/13 03:02:25;;;;;;;14.10;6.28;;;;;;;;;;4994186;28;20238;-64
2024/03/13 03:04:53;;;;;;;17.13;6.88;;;;;;;;;;5021636;28;20114;-63
2024/03/13 03:07:20;;;;;;;20.92;7.28;;;;;;;;;;5029856;28;20044;-64
2024/03/13 03:09:47;;;;;;;20.60;7.28;;;;;;;;;;5055433;28;20136;-64
2024/03/13 03:12:14;;;;;;;19.48;6.68;;;;;;;;;;5015181;28;20052;-64
2024/03/13 03:14:41;;;;;;;15.63;7.03;;;;;;;;;;5020241;28;20085;-64
2024/03/13 03:17:09;;;;;;;14.13;6.32;;;;;;;;;;5027326;28;20308;-64
2024/03/13 03:19:36;;;;;;;15.50;6.10;;;;;;;;;;5017243;28;20145;-64
2024/03/13 03:22:03;;;;;;;15.98;6.47;;;;;;;;;;5043012;28;20148;-65
2024/03/13 03:24:31;;;;;;;16.25;6.70;;;;;;;;;;5019500;28;20055;-64
2024/03/13 03:26:58;;;;;;;18.27;7.17;;;;;;;;;;5038840;28;20056;-63
2024/03/13 03:29:26;;;;;;;18.65;6.05;;;;;;;;;;5035057;28;20307;-64
2024/03/13 03:31:52;;;;;;;15.52;6.32;;;;;;;;;;5032743;28;20064;-64
2024/03/13 03:34:19;;;;;;;13.35;5.95;;;;;;;;;;5034727;28;20060;-64
2024/03/13 03:36:46;;;;;;;13.05;5.97;;;;;;;;;;5040907;28;20056;-64
2024/03/13 03:39:14;;;;;;;12.48;5.95;;;;;;;;;;5036575;28;20098;-66
2024/03/13 03:41:41;;;;;;;14.07;5.88;;;;;;;;;;5014943;28;20048;-64
2024/03/13 03:44:11;;;;;;;15.73;6.55;;;;;;;;;;5040481;28;20088;-64
2024/03/13 03:46:38;;;;;;;12.07;5.63;;;;;;;;;;5043768;28;20339;-64
2024/03/13 03:49:06;;;;;;;15.82;5.75;;;;;;;;;;5039387;28;20049;-63
2024/03/13 03:51:35;;;;;;;13.98;5.72;;;;;;;;;;5023288;28;20059;-64
2024/03/13 03:54:01;;;;;;;14.75;6.25;;;;;;;;;;5045677;28;20056;-64
2024/03/13 03:56:28;;;;;;;13.43;5.68;;;;;;;;;;5026440;28;20052;-64
2024/03/13 03:58:55;;;;;;;16.33;6.53;;;;;;;;;;5042490;28;20056;-64
2024/03/13 04:01:24;;;;;;;12.35;5.60;;;;;;;;;;5029105;28;20062;-64
2024/03/13 04:03:51;;;;;;;16.40;6.50;;;;;;;;;;5062843;28;20199;-64
2024/03/13 04:06:18;;;;;;;16.75;6.07;;;;;;;;;;5028276;28;20064;-64
2024/03/13 04:08:45;;;;;;;14.20;5.72;;;;;;;;;;5043579;28;20109;-65
2024/03/13 04:11:12;;;;;;;18.25;6.20;;;;;;;;;;5008621;28;20550;-63
2024/03/13 04:13:39;;;;;;;15.30;6.18;;;;;;;;;;5063392;28;20084;-63
2024/03/13 04:16:07;;;;;;;14.50;5.20;;;;;;;;;;5044145;28;20074;-64
2024/03/13 04:18:33;;;;;;;12.05;4.88;;;;;;;;;;5026183;28;20059;-64
2024/03/13 04:21:00;;;;;;;9.68;4.72;;;;;;;;;;5042590;28;20048;-65
2024/03/13 04:23:29;;;;;;;13.07;5.13;;;;;;;;;;5035855;28;20249;-64
2024/03/13 04:25:56;;;;;;;10.23;4.75;;;;;;;;;;5043902;28;20153;-64
2024/03/13 04:28:23;;;;;;;12.02;5.22;;;;;;;;;;5027258;28;20064;-63
2024/03/13 04:30:52;;;;;;;12.00;4.72;;;;;;;;;;5022371;28;20137;-64
2024/03/13 04:33:22;;;;;;;10.73;4.70;;;;;;;;;;5036225;28;20045;-64
2024/03/13 04:35:54;;;;;;;10.40;4.43;;;;;;;;;;5057973;28;20053;-63
2024/03/13 04:38:20;;;;;;;11.35;4.80;;;;;;;;;;5056346;28;20059;-64
2024/03/13 04:40:47;;;;;;;11.57;4.97;;;;;;;;;;5018833;28;20059;-64
2024/03/13 04:43:14;;;;;;;10.07;4.68;;;;;;;;;;5036608;28;20056;-65
2024/03/13 04:45:41;;;;;;;9.63;4.05;;;;;;;;;;5036033;28;20073;-63
2024/03/13 04:48:11;;;;;;;10.60;4.53;;;;;;;;;;5037768;28;20060;-64
2024/03/13 04:50:38;;;;;;;10.85;4.43;;;;;;;;;;5026542;28;20140;-64
2024/03/13 04:53:05;;;;;;;10.63;4.90;;;;;;;;;;5030910;28;20106;-64
2024/03/13 04:55:33;;;;;;;10.55;4.47;;;;;;;;;;5021346;28;20064;-63
2024/03/13 04:58:00;;;;;;;9.85;4.88;;;;;;;;;;5026187;28;20109;-65
2024/03/13 05:00:27;;;;;;;10.52;4.03;;;;;;;;;;5044738;28;20143;-64
2024/03/13 05:02:55;;;;;;;9.18;4.25;;;;;;;;;;5032222;28;20122;-64
2024/03/13 05:05:22;;;;;;;15.80;4.70;;;;;;;;;;5036003;28;20363;-64
2024/03/13 05:07:48;;;;;;;7.22;3.58;;;;;;;;;;5042862;28;20049;-64
2024/03/13 05:10:16;;;;;;;12.18;4.80;;;;;;;;;;5044031;28;20145;-63
2024/03/13 05:12:43;;;;;;;9.17;4.10;;;;;;;;;;5015997;28;20049;-65
2024/03/13 05:15:12;;;;;;;10.25;4.30;;;;;;;;;;5050569;28;20303;-65
2024/03/13 05:17:38;;;;;;;9.63;3.65;;;;;;;;;;5045897;28;20061;-64
2024/03/13 05:20:07;;;;;;;11.82;4.15;;;;;;;;;;5059002;28;20064;-64
2024/03/13 05:22:35;;;;;;;10.55;3.78;;;;;;;;;;5037109;28;20060;-64
2024/03/13 05:25:04;;;;;;;;;;;;;;;;;;5058496;28;20056;-64
2024/03/13 05:27:32;;;;;;;10.30;3.72;;;;;;;;;;5036341;28;19974;-65
2024/03/13 05:29:59;;;;;;;8.52;3.45;;;;;;;;;;5037028;28;20063;-65
2024/03/13 05:32:26;;;;;;;12.60;3.95;;;;;;;;;;5038552;28;20052;-65
2024/03/13 05:34:53;;;;;;;10.57;4.10;;;;;;;;;;5042417;28;20063;-65
2024/03/13 05:37:19;;;;;;;9.48;3.72;;;;;;;;;;5039875;28;20080;-64
2024/03/13 05:39:48;;;;;;;7.90;3.50;;;;;;;;;;5025871;28;20139;-66
2024/03/13 05:42:17;;;;;;;;;;;;;;;;;;5055168;28;20111;-65
2024/03/13 05:44:44;;;;;;;7.35;3.10;;;;;;;;;;5057158;28;19924;-64
2024/03/13 05:47:11;;;;;;;22.45;9.30;;;;;;;;;;5018814;28;20060;-65
2024/03/13 05:49:38;;;;;;;15.68;6.07;;;;;;;;;;5025248;28;20055;-65
2024/03/13 05:52:05;;;;;;;8.65;3.33;;;;;;;;;;5031879;28;20092;-64
2024/03/13 05:54:32;;;;;;;9.32;3.95;;;;;;;;;;5030915;28;20060;-65
2024/03/13 05:56:59;;;;;;;7.90;3.60;;;;;;;;;;5022109;28;20146;-65
2024/03/13 05:59:26;;;;;;;8.82;3.58;;;;;;;;;;5030703;28;20061;-65
2024/03/13 06:01:55;;;;;;;8.07;3.20;;;;;;;;;;5025256;28;20052;-65
2024/03/13 06:04:23;;;;;;;7.80;3.10;;;;;;;;;;5021712;28;20048;-64
2024/03/13 06:06:51;;;;;;;7.53;3.13;;;;;;;;;;5021984;28;20055;-64
2024/03/13 06:09:19;;;;;;;9.52;3.60;;;;;;;;;;5005566;28;20068;-65
2024/03/13 06:11:46;;;;;;;6.50;3.30;;;;;;;;;;5012317;28;20091;-64
2024/03/13 06:14:13;;;;;;;20.90;7.30;;;;;;;;;;5068549;28;20064;-65
2024/03/13 06:16:41;;;;;;;13.20;5.22;;;;;;;;;;5041422;28;20056;-63
2024/03/13 06:19:08;;;;;;;9.27;3.08;;;;;;;;;;5053887;28;20048;-66
2024/03/13 06:21:36;;;;;;;7.60;3.20;;;;;;;;;;5020541;28;20061;-66
2024/03/13 06:24:06;;;;;;;6.97;3.00;;;;;;;;;;5026255;28;20079;-65
2024/03/13 06:26:36;;;;;;;6.00;2.53;;;;;;;;;;5064781;28;20079;-65
2024/03/13 06:31:50;;;;;;;9.30;3.78;;;;;;;;;;5015265;28;20061;-65
2024/03/13 06:34:17;;;;;;;9.73;3.85;;;;;;;;;;5007382;28;20059;-66
2024/03/13 06:36:43;;;;;;;7.70;3.08;;;;;;;;;;5018086;28;20053;-65
2024/03/13 06:39:13;;;;;;;9.20;3.33;;;;;;;;;;4995076;28;20045;-66
2024/03/13 06:41:40;;;;;;;6.97;2.95;;;;;;;;;;4996162;28;20094;-65
2024/03/13 06:44:10;;;;;;;8.32;3.17;;;;;;;;;;5037664;28;20171;-65
2024/03/13 06:46:37;;;;;;;9.77;3.78;;;;;;;;;;5060901;28;20056;-65
2024/03/13 06:49:04;;;;;;;9.02;4.65;;;;;;;;;;5050106;28;20040;-65
2024/03/13 06:51:31;;;;;;;6.88;2.83;;;;;;;;;;4999853;28;20087;-65
2024/03/13 06:53:58;;;;;;;7.38;3.38;;;;;;;;;;5035981;28;20083;-65
2024/03/13 06:56:25;;;;;;;8.57;3.63;;;;;;;;;;5020577;28;20075;-64
2024/03/13 06:58:52;;;;;;;7.22;2.58;;;;;;;;;;5020418;28;20053;-65
2024/03/13 07:01:19;;;;;;;7.90;2.97;;;;;;;;;;4989401;28;20055;-65
2024/03/13 07:03:46;;;;;;;10.60;3.25;;;;;;;;;;5010588;28;20040;-67
2024/03/13 07:06:14;;;;;;;9.43;2.75;;;;;;;;;;5005887;28;20050;-66
2024/03/13 07:08:41;;;;;;;6.35;2.92;;;;;;;;;;5020213;28;20063;-65
2024/03/13 07:11:10;;;;;;;9.70;3.92;;;;;;;;;;4984186;28;20063;-65
2024/03/13 07:13:38;;;;;;;12.70;4.97;;;;;;;;;;4998050;28;20206;-66
2024/03/13 07:16:07;;;;;;;16.83;5.50;;;;;;;;;;5029708;28;20068;-65
2024/03/13 07:18:34;;;;;;;10.45;4.45;;;;;;;;;;5014680;28;20045;-66
2024/03/13 07:21:03;;;;;;;8.07;3.75;;;;;;;;;;5031764;28;20084;-66
2024/03/13 07:23:30;;;;;;;;;;;;;;;;;;5024791;28;20087;-64
2024/03/13 07:25:57;;;;;;;7.53;3.28;;;;;;;;;;5063141;28;19935;-65
2024/03/13 07:28:24;;;;;;;8.45;3.65;;;;;;;;;;5005380;28;20068;-66
2024/03/13 07:30:52;;;;;;;8.27;3.58;;;;;;;;;;5018478;28;20063;-66
2024/03/13 07:33:22;;;;;;;8.32;3.70;;;;;;;;;;5016524;28;20055;-66
2024/03/13 07:35:51;;;;;;;12.48;6.10;;;;;;;;;;5018275;28;20056;-66
2024/03/13 07:38:20;;;;;;;19.15;8.18;;;;;;;;;;5057425;28;20134;-65
2024/03/13 07:40:47;;;;;;;12.13;5.40;;;;;;;;;;5019319;28;20071;-65
2024/03/13 07:43:14;;;;;;;11.05;4.70;;;;;;;;;;4974269;28;20053;-65
2024/03/13 07:45:41;;;;;;;9.05;4.20;;;;;;;;;;5035886;28;20061;-66
2024/03/13 07:48:08;;;;;;;9.68;4.22;;;;;;;;;;5033764;28;20064;-66
2024/03/13 07:50:36;;;;;;;10.38;4.80;;;;;;;;;;5035921;28;20067;-65
2024/03/13 07:53:04;;;;;;;10.80;4.53;;;;;;;;;;5015648;28;20051;-66
2024/03/13 07:55:31;;;;;;;13.00;5.07;;;;;;;;;;5046093;28;21104;-65
2024/03/13 07:57:58;;;;;;;11.38;5.22;;;;;;;;;;5035177;28;20205;-65
2024/03/13 08:00:27;;;;;;;11.93;5.18;;;;;;;;;;5035102;28;20064;-65
2024/03/13 08:02:55;;;;;;;14.90;5.18;;;;;;;;;;4973121;28;20065;-67
2024/03/13 08:05:23;;;;;;;11.18;4.72;;;;;;;;;;5006573;28;20052;-65
2024/03/13 08:07:50;;;;;;;13.43;5.15;;;;;;;;;;5019071;28;20068;-65
2024/03/13 08:10:18;;;;;;;11.43;4.88;;;;;;;;;;5050548;28;20048;-65
2024/03/13 08:12:45;;;;;;;10.60;5.20;;;;;;;;;;5009054;28;20048;-65
2024/03/13 08:15:13;;;;;;;15.95;5.55;;;;;;;;;;5014531;28;20069;-64
2024/03/13 08:17:45;;;;;;;10.90;5.18;;;;;;;;;;5052054;28;20106;-65
2024/03/13 08:20:12;;;;;;;12.45;5.20;;;;;;;;;;5052346;28;20055;-65
2024/03/13 08:22:40;;;;;;;12.68;5.00;;;;;;;;;;4994559;28;20060;-65
2024/03/13 08:25:16;;;;;;;12.02;5.22;;;;;;;;;;5015525;28;20116;-65
2024/03/13 08:27:43;;;;;;;19.15;7.15;;;;;;;;;;5052877;28;20088;-66
2024/03/13 08:30:13;;;;;;;15.63;6.18;;;;;;;;;;5051224;28;20088;-65
2024/03/13 08:32:40;;;;;;;20.00;9.27;;;;;;;;;;5038676;28;20056;-64
2024/03/13 08:35:09;;;;;;;15.65;5.20;;;;;;;;;;5033030;28;20147;-65
2024/03/13 08:37:36;;;;;;;14.57;5.80;;;;;;;;;;5021811;28;20151;-65
2024/03/13 08:40:11;;;;;;;9.32;3.92;;;;;;;;;;5052132;28;20115;-65
2024/03/13 08:42:38;;;;;;;11.15;4.85;;;;;;;;;;5030777;28;20059;-65
2024/03/13 08:45:13;;;;;;;;;;;;;;;;;;5036096;28;20056;-66
2024/03/13 08:47:40;;;;;;;12.00;4.13;;;;;;;;;;5065259;28;19928;-66
2024/03/13 08:50:12;;;;;;;9.23;3.80;;;;;;;;;;5036942;28;20053;-65
2024/03/13 08:52:41;;;;;;;8.77;3.92;;;;;;;;;;4994855;28;20149;-65
2024/03/13 08:55:19;;;;;;;10.52;4.15;;;;;;;;;;5026950;28;20060;-65
2024/03/13 08:57:48;;;;;;;10.98;3.78;;;;;;;;;;5014824;28;20064;-65
2024/03/13 09:00:18;;;;;;;9.68;3.70;;;;;;;;;;4998552;28;20045;-65
2024/03/13 09:02:45;;;;;;;9.52;3.28;;;;;;;;;;5020040;28;20059;-65
2024/03/13 09:05:15;;;;;;;8.98;2.92;;;;;;;;;;4994623;28;20647;-65
2024/03/13 09:07:42;;;;;;;6.93;3.25;;;;;;;;;;5000441;28;20056;-65
2024/03/13 09:10:12;;;;;;;8.25;2.83;;;;;;;;;;5015391;28;20081;-64
2024/03/13 09:12:41;;;;;;;8.73;3.25;;;;;;;;;;4945444;28;20064;-65
2024/03/13 09:15:09;;;;;;;10.27;4.15;;;;;;;;;;5007326;28;20081;-65
2024/03/13 09:17:37;;;;;;;9.32;4.57;;;;;;;;;;5014495;28;20161;-65
2024/03/13 09:20:04;;;;;;;7.13;3.55;;;;;;;;;;5021149;28;20048;-64
2024/03/13 09:22:32;;;;;;;10.95;5.32;;;;;;;;;;5011810;28;20056;-65
2024/03/13 09:24:58;;;;;;;10.57;4.28;;;;;;;;;;5033174;28;20080;-67
2024/03/13 09:27:25;;;;;;;9.48;3.38;;;;;;;;;;5028112;28;20056;-65
2024/03/13 09:29:52;;;;;;;11.23;3.97;;;;;;;;;;5031387;28;20138;-64
2024/03/13 09:32:21;;;;;;;10.85;4.40;;;;;;;;;;5011961;28;21058;-66
2024/03/13 09:34:48;;;;;;;14.48;4.55;;;;;;;;;;5020654;28;20052;-64
2024/03/13 09:37:17;;;;;;;12.45;4.40;;;;;;;;;;5045091;28;21010;-66
2024/03/13 09:39:44;;;;;;;14.80;5.20;;;;;;;;;;5020023;28;20053;-64
2024/03/13 09:42:16;;;;;;;18.92;4.55;;;;;;;;;;5023952;28;20064;-65
2024/03/13 09:44:43;;;;;;;14.55;4.57;;;;;;;;;;5017761;28;20052;-65
2024/03/13 09:47:13;;;;;;;13.10;4.43;;;;;;;;;;5031084;28;20141;-64
2024/03/13 09:49:42;;;;;;;12.43;5.18;;;;;;;;;;5035291;28;20044;-65
2024/03/13 09:52:12;;;;;;;11.57;4.15;;;;;;;;;;5005107;28;20132;-64
2024/03/13 09:54:40;;;;;;;17.05;4.95;;;;;;;;;;5032763;28;20052;-65
2024/03/13 09:57:12;;;;;;;12.60;4.25;;;;;;;;;;5045256;28;20045;-65
2024/03/13 09:59:41;;;;;;;11.88;4.78;;;;;;;;;;5031928;28;20130;-65
2024/03/13 10:02:11;;;;;;;17.60;4.65;;;;;;;;;;5010723;28;20980;-65
2024/03/13 10:04:38;;;;;;;12.55;4.68;;;;;;;;;;5033382;28;20049;-66
2024/03/13 10:07:07;;;;;;;15.52;4.75;;;;;;;;;;5030236;28;20060;-64
2024/03/13 10:09:35;;;;;;;;;;;;;;;;;;5016155;28;20052;-65
2024/03/13 10:12:02;;;;;;;13.32;4.72;;;;;;;;;;5022133;28;19929;-65
2024/03/13 10:14:29;;;;;;;13.32;4.50;;;;;;;;;;5026241;28;20060;-65
2024/03/13 10:16:56;;;;;;;14.38;5.00;;;;;;;;;;5041102;28;20171;-65
2024/03/13 10:19:23;;;;;;;14.32;6.13;;;;;;;;;;5011596;28;20082;-64
2024/03/13 10:21:51;;;;;;;14.10;6.10;;;;;;;;;;5000207;28;20056;-65
2024/03/13 10:24:18;;;;;;;;;;;;;;;;;;5032061;28;20066;-66
2024/03/13 10:26:46;;;;;;;15.50;5.22;;;;;;;;;;5065220;28;19974;-65
2024/03/13 10:29:13;;;;;;;15.48;5.95;;;;;;;;;;5027057;28;20056;-64
2024/03/13 10:31:40;;;;;;;18.52;6.20;;;;;;;;;;5011837;28;20057;-65
2024/03/13 10:34:07;;;;;;;17.02;6.68;;;;;;;;;;5022946;28;20052;-65
2024/03/13 10:36:38;;;;;;;15.05;5.50;;;;;;;;;;5045410;28;20067;-65
2024/03/13 10:39:11;;;;;;;13.32;5.82;;;;;;;;;;5030817;28;20075;-65
2024/03/13 10:41:44;;;;;;;15.20;5.63;;;;;;;;;;5004498;28;20103;-64
2024/03/13 10:44:11;;;;;;;16.02;5.43;;;;;;;;;;5013192;28;20056;-65
2024/03/13 10:46:42;;;;;;;18.60;5.68;;;;;;;;;;5030569;28;20049;-65
2024/03/13 10:49:14;;;;;;;15.30;6.22;;;;;;;;;;5013425;28;20059;-65
2024/03/13 10:51:44;;;;;;;17.25;6.07;;;;;;;;;;5013331;28;20053;-65
2024/03/13 10:54:12;;;;;;;21.05;5.72;;;;;;;;;;5036930;28;20057;-64
2024/03/13 10:56:39;;;;;;;17.85;6.07;;;;;;;;;;5007246;28;20063;-65
2024/03/13 10:59:12;;;;;;;14.40;5.72;;;;;;;;;;5005444;28;20061;-65
2024/03/13 11:01:39;;;;;;;17.65;6.55;;;;;;;;;;5053207;28;20068;-65
2024/03/13 11:04:11;;;;;;;13.43;5.40;;;;;;;;;;4995691;28;20075;-65
2024/03/13 11:06:40;;;;;;;19.42;6.93;;;;;;;;;;5012819;28;20142;-65
2024/03/13 11:09:12;;;;;;;14.05;6.28;;;;;;;;;;5009921;28;20049;-65
2024/03/13 11:11:39;;;;;;;16.83;6.70;;;;;;;;;;4980172;28;20075;-64
2024/03/13 11:14:07;;;;;;;15.02;6.72;;;;;;;;;;5010589;28;20065;-66
2024/03/13 11:16:39;;;;;;;16.88;6.65;;;;;;;;;;4994641;28;20057;-67
2024/03/13 11:19:08;;;;;;;17.25;5.78;;;;;;;;;;4994257;28;20049;-65
2024/03/13 11:21:37;;;;;;;23.05;6.00;;;;;;;;;;4978824;28;20062;-65
2024/03/13 11:24:04;;;;;;;12.55;5.57;;;;;;;;;;5010753;28;20057;-66
2024/03/13 11:26:34;;;;;;;9.65;3.88;;;;;;;;;;5028923;28;20053;-65
2024/03/13 11:29:03;;;;;;;11.15;4.75;;;;;;;;;;5010684;28;20089;-64
2024/03/13 11:31:31;;;;;;;16.58;4.60;;;;;;;;;;5011228;28;20053;-66
2024/03/13 11:34:01;;;;;;;12.60;4.53;;;;;;;;;;4994054;28;20073;-65
2024/03/13 11:36:28;;;;;;;12.75;3.95;;;;;;;;;;5013686;28;20069;-64
2024/03/13 11:38:56;;;;;;;13.35;4.63;;;;;;;;;;4994872;28;20048;-65
2024/03/13 11:41:26;;;;;;;13.18;4.25;;;;;;;;;;5006588;28;20068;-65
2024/03/13 11:43:56;;;;;;;14.55;3.20;;;;;;;;;;5005927;28;20056;-65
2024/03/13 11:46:33;;;;;;;9.13;3.35;;;;;;;;;;4994004;28;20057;-65
2024/03/13 11:49:04;;;;;;;15.43;3.25;;;;;;;;;;5036418;28;20063;-64
2024/03/13 11:51:31;;;;;;;10.00;3.95;;;;;;;;;;5016979;28;20073;-65
2024/03/13 11:54:11;;;;;;;7.35;2.63;;;;;;;;;;5012945;28;20056;-65
2024/03/13 11:56:39;;;;;;;11.33;2.80;;;;;;;;;;5017948;28;20060;-65
2024/03/13 11:59:08;;;;;;;4.63;2.35;;;;;;;;;;5013314;28;20313;-66
2024/03/13 12:01:36;;;;;;;10.05;2.75;;;;;;;;;;5018545;28;20064;-64
2024/03/13 12:04:05;;;;;;;;;;;;;;;;;;5037646;28;20058;-65
2024/03/13 12:06:37;;;;;;;11.35;2.83;;;;;;;;;;5051104;28;19929;-66
2024/03/13 12:09:16;;;;;;;;;;;;;;;;;;;;;
2024/03/13 12:11:51;;;;;;;10.73;3.10;;;;;;;;;;5030353;28;20088;-65
2024/03/13 12:14:21;;;;;;;8.73;2.75;;;;;;;;;;5018635;28;20060;-66
2024/03/13 12:16:48;;;;;;;9.25;3.38;;;;;;;;;;5019284;28;20061;-65
2024/03/13 12:19:17;;;;;;;12.32;3.65;;;;;;;;;;5027813;28;20151;-66
2024/03/13 12:21:44;;;;;;;7.25;3.28;;;;;;;;;;5019090;28;20176;-66
2024/03/13 12:24:17;;;;;;;17.65;3.85;;;;;;;;;;5049362;28;20071;-65
2024/03/13 12:26:44;;;;;;;12.40;3.55;;;;;;;;;;5033664;28;20064;-66
2024/03/13 12:29:11;;;;;;;10.65;3.53;;;;;;;;;;5047194;28;20056;-68
2024/03/13 12:31:42;;;;;;;13.53;3.90;;;;;;;;;;5044964;28;20067;-66
2024/03/13 12:34:10;;;;;;;13.82;3.85;;;;;;;;;;5044763;28;20064;-67
2024/03/13 12:36:44;;;;;;;;;;;;;;;;;;4998191;28;20124;-65
2024/03/13 12:39:16;;;;;;;12.75;3.88;;;;;;;;;;5026611;28;19935;-65
2024/03/13 12:41:44;;;;;;;11.75;5.05;;;;;;;;;;5000307;28;20064;-65
2024/03/13 12:44:11;;;;;;;18.27;5.63;;;;;;;;;;5020561;28;20788;-64
2024/03/13 12:46:39;;;;;;;13.90;4.60;;;;;;;;;;4998966;28;20057;-65
2024/03/13 12:49:09;;;;;;;13.43;4.40;;;;;;;;;;5000043;28;20049;-65
2024/03/13 12:51:39;;;;;;;12.45;4.90;;;;;;;;;;4996856;28;20067;-64
2024/03/13 12:54:07;;;;;;;11.48;5.47;;;;;;;;;;4996710;28;20091;-64
2024/03/13 12:56:38;;;;;;;15.20;6.05;;;;;;;;;;4997230;28;20061;-65
2024/03/13 12:59:05;;;;;;;14.95;6.00;;;;;;;;;;5045067;28;20053;-65
2024/03/13 13:01:36;;;;;;;20.27;5.50;;;;;;;;;;4992711;28;20057;-65
2024/03/13 13:04:03;;;;;;;14.23;5.63;;;;;;;;;;4970771;28;20134;-64
2024/03/13 13:06:31;;;;;;;19.85;5.93;;;;;;;;;;5014763;28;20064;-64
2024/03/13 13:08:58;;;;;;;13.00;5.22;;;;;;;;;;5031088;28;20057;-64
2024/03/13 13:11:24;;;;;;;17.85;5.95;;;;;;;;;;5023093;28;20115;-65
2024/03/13 13:13:51;;;;;;;13.77;5.47;;;;;;;;;;4984004;28;20048;-64
2024/03/13 13:16:18;;;;;;;13.93;5.18;;;;;;;;;;5032447;28;20174;-65
2024/03/13 13:18:46;;;;;;;17.00;5.50;;;;;;;;;;4998542;28;20155;-65
2024/03/13 13:21:13;;;;;;;19.58;5.55;;;;;;;;;;4990684;28;20163;-65
2024/03/13 13:23:40;;;;;;;12.70;5.55;;;;;;;;;;4999299;28;20061;-65
2024/03/13 13:26:07;;;;;;;16.83;5.82;;;;;;;;;;5028869;28;20053;-64
2024/03/13 13:28:34;;;;;;;18.58;6.18;;;;;;;;;;5033060;28;20060;-65
2024/03/13 13:31:03;;;;;;;15.07;5.75;;;;;;;;;;5014613;28;20061;-65
2024/03/13 13:33:31;;;;;;;24.58;6.95;;;;;;;;;;5023944;28;20061;-65
2024/03/13 13:36:01;;;;;;;14.68;5.88;;;;;;;;;;4998326;28;20085;-65
2024/03/13 13:38:30;;;;;;;15.88;6.10;;;;;;;;;;4998055;28;20158;-65
2024/03/13 13:40:57;;;;;;;14.32;5.57;;;;;;;;;;5015324;28;20052;-64
2024/03/13 13:43:24;;;;;;;11.95;5.68;;;;;;;;;;4999912;28;20136;-65
2024/03/13 13:45:53;;;;;;;12.63;5.38;;;;;;;;;;5032032;28;20067;-66
2024/03/13 13:48:23;;;;;;;15.05;5.45;;;;;;;;;;4999308;28;20155;-65
2024/03/13 13:50:51;;;;;;;10.00;4.22;;;;;;;;;;5014780;28;20052;-65
2024/03/13 13:53:18;;;;;;;12.70;5.27;;;;;;;;;;4980865;28;20072;-65
2024/03/13 13:55:45;;;;;;;18.00;5.85;;;;;;;;;;5013842;28;20045;-65
2024/03/13 13:58:13;;;;;;;17.25;5.03;;;;;;;;;;5047586;28;20067;-64
2024/03/13 14:00:42;;;;;;;13.13;4.90;;;;;;;;;;5013997;28;20053;-64
2024/03/13 14:03:12;;;;;;;11.52;4.65;;;;;;;;;;5022674;28;20441;-64
2024/03/13 14:05:40;;;;;;;14.18;5.20;;;;;;;;;;5015940;28;20128;-64
2024/03/13 14:08:07;;;;;;;13.40;4.90;;;;;;;;;;5031382;28;20060;-65
2024/03/13 14:10:35;;;;;;;9.88;4.22;;;;;;;;;;4998251;28;20077;-65
2024/03/13 14:13:05;;;;;;;15.02;4.25;;;;;;;;;;5010119;28;20065;-65
2024/03/13 14:15:35;;;;;;;11.27;4.45;;;;;;;;;;5026791;28;20053;-66
2024/03/13 14:18:06;;;;;;;14.80;4.18;;;;;;;;;;4998373;28;20176;-65
2024/03/13 14:20:33;;;;;;;10.55;4.10;;;;;;;;;;5013658;28;20111;-65
2024/03/13 14:23:04;;;;;;;11.10;3.60;;;;;;;;;;4986082;28;20079;-66
2024/03/13 14:25:32;;;;;;;8.82;3.63;;;;;;;;;;4993809;28;20057;-65
2024/03/13 14:28:00;;;;;;;7.88;3.83;;;;;;;;;;5030213;28;20060;-66
2024/03/13 14:30:27;;;;;;;9.65;3.60;;;;;;;;;;4994696;28;20121;-65
2024/03/13 14:32:53;;;;;;;11.98;3.83;;;;;;;;;;4982098;28;20053;-64
2024/03/13 14:35:21;;;;;;;14.23;3.35;;;;;;;;;;5014338;28;20056;-65
2024/03/13 14:37:48;;;;;;;9.70;3.30;;;;;;;;;;5049093;28;20061;-65
2024/03/13 14:40:20;;;;;;;8.27;3.22;;;;;;;;;;5013858;28;20060;-65
2024/03/13 14:42:47;;;;;;;6.70;3.03;;;;;;;;;;5016156;28;20167;-65
2024/03/13 14:45:23;;;;;;;14.60;2.78;;;;;;;;;;5000347;28;20147;-65
2024/03/13 14:47:50;;;;;;;8.65;3.58;;;;;;;;;;5043960;28;20057;-65
2024/03/13 14:50:18;;;;;;;5.45;2.60;;;;;;;;;;5011121;28;20072;-65
2024/03/13 14:52:45;;;;;;;7.70;2.78;;;;;;;;;;5011240;28;20064;-65
2024/03/13 14:55:12;;;;;;;8.10;3.03;;;;;;;;;;5022909;28;20057;-65
2024/03/13 14:57:39;;;;;;;6.25;2.35;;;;;;;;;;4994504;28;20061;-65
2024/03/13 15:00:10;;;;;;;6.25;2.72;;;;;;;;;;5034560;28;20060;-66
2024/03/13 15:02:37;;;;;;;7.10;2.83;;;;;;;;;;5009164;28;20149;-65
2024/03/13 15:05:07;;;;;;;7.32;3.08;;;;;;;;;;4994774;28;20114;-64